Pettit, Oklahoma
Current Conditions -  °F | °C
As of 5:35 AM on Thursday 18 Dec 2014 (Local Time) from KTQH Reporting Station
Haze Haze  
Wind Chill: 34°   Ceiling: 1100
Heat Index: 34°   Visibility: 4mi
Dew Point: 34°   Wind: 0mph
Humidity: 100%   Direction: NA
Pressure: 30.16"   Gusts: NA
Location:  35.7526°N, 95.024°W
Report Text: KTQH 181135Z AUTO 00000KT 4SM BR SCT003 OVC011 01/01 A3016 RMK AO2
Loading
Personal Weather Stations






























Interactive Weather Map New forecast layout! Learn more

10-Day Weather Forecast

Advertisements
Track Severe Weather on mobile